createdAt,value
2023-12-24T00:00:19.693Z,306
2023-12-24T00:00:47.430Z,306
2023-12-24T00:01:17.195Z,303
2023-12-24T00:01:47.629Z,305
2023-12-24T00:02:17.187Z,305
2023-12-24T00:02:47.551Z,304
2023-12-24T00:03:18.602Z,302
2023-12-24T00:03:50.477Z,300
2023-12-24T00:04:21.190Z,299
2023-12-24T00:04:52.085Z,298
2023-12-24T00:05:26.867Z,298
2023-12-24T00:05:58.208Z,300
2023-12-24T00:06:24.399Z,303
2023-12-24T00:06:57.394Z,300
2023-12-24T00:07:26.315Z,297
2023-12-24T00:07:57.963Z,297
2023-12-24T00:08:28.869Z,295
2023-12-24T00:09:00.134Z,295
2023-12-24T00:09:30.736Z,296
2023-12-24T00:10:04.806Z,297
2023-12-24T00:10:34.740Z,297
2023-12-24T00:11:04.798Z,294
2023-12-24T00:11:37.792Z,291
2023-12-24T00:12:08.543Z,292
2023-12-24T00:12:37.178Z,293
2023-12-24T00:13:07.587Z,295
2023-12-24T00:13:38.945Z,298
2023-12-24T00:14:09.235Z,295
2023-12-24T00:14:41.415Z,295
2023-12-24T00:15:18.226Z,296
2023-12-24T00:15:43.327Z,293
2023-12-24T00:16:13.879Z,288
2023-12-24T00:16:47.600Z,287
2023-12-24T00:17:16.659Z,287
2023-12-24T00:17:46.384Z,288
2023-12-24T00:18:19.199Z,288
2023-12-24T00:18:47.975Z,293
2023-12-24T00:19:19.255Z,293
2023-12-24T00:19:51.514Z,294
2023-12-24T00:20:24.688Z,297
2023-12-24T00:20:53.526Z,296
2023-12-24T00:21:24.267Z,293
2023-12-24T00:21:55.678Z,294
2023-12-24T00:22:25.701Z,289
2023-12-24T00:22:58.224Z,289
2023-12-24T00:23:28.932Z,291
2023-12-24T00:23:59.214Z,290
2023-12-24T00:24:32.893Z,294
2023-12-24T00:25:00.918Z,292
2023-12-24T00:25:32.705Z,294
2023-12-24T00:26:03.268Z,295
2023-12-24T00:26:33.953Z,296
2023-12-24T00:27:04.767Z,291
2023-12-24T00:27:36.664Z,292
2023-12-24T00:28:07.172Z,289
2023-12-24T00:28:37.726Z,291
2023-12-24T00:29:11.425Z,290
2023-12-24T00:29:41.994Z,292
2023-12-24T00:30:16.338Z,294
2023-12-24T00:30:44.507Z,290
2023-12-24T00:31:15.785Z,295
2023-12-24T00:31:45.270Z,296
2023-12-24T00:32:17.656Z,301
2023-12-24T00:32:47.735Z,301
2023-12-24T00:33:17.992Z,302
2023-12-24T00:33:49.294Z,301
2023-12-24T00:34:20.649Z,302
2023-12-24T00:34:50.035Z,302
2023-12-24T00:35:23.388Z,305
2023-12-24T00:35:56.128Z,301
2023-12-24T00:36:24.335Z,303
2023-12-24T00:36:54.544Z,304
2023-12-24T00:37:26.762Z,304
2023-12-24T00:37:58.901Z,301
2023-12-24T00:38:30.774Z,304
2023-12-24T00:39:00.231Z,302
2023-12-24T00:39:31.570Z,300
2023-12-24T00:40:00.581Z,300
2023-12-24T00:40:36.350Z,293
2023-12-24T00:41:06.833Z,293
2023-12-24T00:41:37.170Z,290
2023-12-24T00:42:38.018Z,292
2023-12-24T00:43:08.996Z,289
2023-12-24T00:43:38.057Z,288
2023-12-24T00:44:10.626Z,286
2023-12-24T00:44:42.043Z,285
2023-12-24T00:45:15.615Z,281
2023-12-24T00:45:42.339Z,280
2023-12-24T00:46:16.529Z,280
2023-12-24T00:46:45.384Z,282
2023-12-24T00:47:15.995Z,283
2023-12-24T00:47:48.034Z,282
2023-12-24T00:48:17.892Z,287
2023-12-24T00:48:48.854Z,289
2023-12-24T00:49:22.116Z,287
2023-12-24T00:49:50.660Z,290
2023-12-24T00:50:23.988Z,290
2023-12-24T00:50:56.162Z,291
2023-12-24T00:51:25.563Z,296
2023-12-24T00:51:53.555Z,299
2023-12-24T00:52:25.800Z,296
2023-12-24T00:53:05.189Z,297
2023-12-24T00:53:26.411Z,298
2023-12-24T00:53:59.748Z,297
2023-12-24T00:54:31.301Z,296
2023-12-24T00:55:02.856Z,300
2023-12-24T00:55:29.928Z,304
2023-12-24T00:56:03.961Z,304
2023-12-24T00:56:33.580Z,305
2023-12-24T00:57:02.852Z,306
2023-12-24T00:57:34.222Z,303
2023-12-24T00:58:05.197Z,307
2023-12-24T00:58:36.416Z,305
2023-12-24T00:59:08.592Z,307
2023-12-24T00:59:37.861Z,306
2023-12-24T01:00:13.911Z,307
2023-12-24T01:01:01.547Z,308
2023-12-24T01:01:11.122Z,306
2023-12-24T01:01:41.193Z,303
2023-12-24T01:02:12.150Z,301
2023-12-24T01:02:45.554Z,303
2023-12-24T01:03:13.912Z,301
2023-12-24T01:03:44.372Z,301
2023-12-24T01:04:17.555Z,305
2023-12-24T01:04:47.545Z,306
2023-12-24T01:05:18.471Z,304
2023-12-24T01:05:49.046Z,301
2023-12-24T01:06:21.070Z,303
2023-12-24T01:06:51.570Z,304
2023-12-24T01:07:21.602Z,304
2023-12-24T01:07:52.481Z,303
2023-12-24T01:08:24.191Z,304
2023-12-24T01:08:58.381Z,304
2023-12-24T01:09:46.023Z,303
2023-12-24T01:09:58.556Z,302
2023-12-24T01:10:55.888Z,302
2023-12-24T01:12:12.892Z,300
2023-12-24T01:12:31.521Z,300
2023-12-24T01:13:02.578Z,300
2023-12-24T01:13:34.420Z,302
2023-12-24T01:14:05.049Z,302
2023-12-24T01:14:34.107Z,303
2023-12-24T01:15:52.021Z,304
2023-12-24T01:16:09.722Z,303
2023-12-24T01:16:39.668Z,304
2023-12-24T01:17:16.751Z,303
2023-12-24T01:17:44.444Z,305
2023-12-24T01:18:14.881Z,304
2023-12-24T01:18:46.159Z,302
2023-12-24T01:19:14.922Z,299
2023-12-24T01:19:49.641Z,300
2023-12-24T01:20:22.248Z,299
2023-12-24T01:20:50.814Z,297
2023-12-24T01:21:31.176Z,294
2023-12-24T01:21:53.967Z,298
2023-12-24T01:22:23.709Z,296
2023-12-24T01:22:54.065Z,293
2023-12-24T01:23:24.426Z,295
2023-12-24T01:23:56.045Z,298
2023-12-24T01:24:28.165Z,300
2023-12-24T01:24:59.349Z,301
2023-12-24T01:25:28.950Z,299
2023-12-24T01:26:00.398Z,297
2023-12-24T01:26:30.960Z,298
2023-12-24T01:27:01.198Z,300
2023-12-24T01:27:31.839Z,300
2023-12-24T01:28:02.877Z,302
2023-12-24T01:28:35.004Z,300
2023-12-24T01:29:06.392Z,303
2023-12-24T01:29:36.717Z,304
2023-12-24T01:30:10.703Z,305
2023-12-24T01:30:41.224Z,304
2023-12-24T01:31:08.336Z,304
2023-12-24T01:31:41.985Z,307
2023-12-24T01:32:13.517Z,304
2023-12-24T01:32:44.922Z,309
2023-12-24T01:33:31.692Z,309
2023-12-24T01:33:45.791Z,310
2023-12-24T01:34:22.379Z,309
2023-12-24T01:34:48.755Z,307
2023-12-24T01:35:18.781Z,308
2023-12-24T01:35:49.950Z,310
2023-12-24T01:36:33.944Z,314
2023-12-24T01:36:49.558Z,313
2023-12-24T01:37:21.621Z,311
2023-12-24T01:37:53.973Z,312
2023-12-24T01:38:23.342Z,311
2023-12-24T01:38:55.133Z,313
2023-12-24T01:39:24.248Z,311
2023-12-24T01:39:55.927Z,313
2023-12-24T01:40:31.064Z,312
2023-12-24T01:41:00.479Z,311
2023-12-24T01:41:30.745Z,313
2023-12-24T01:42:18.780Z,313
2023-12-24T01:42:34.371Z,313
2023-12-24T01:43:05.583Z,311
2023-12-24T01:43:32.390Z,311
2023-12-24T01:44:06.069Z,308
2023-12-24T01:44:36.060Z,309
2023-12-24T01:45:08.991Z,307
2023-12-24T01:45:39.843Z,306
2023-12-24T01:46:08.475Z,303
2023-12-24T01:46:39.281Z,301
2023-12-24T01:47:10.514Z,300
2023-12-24T01:47:40.720Z,302
2023-12-24T01:48:44.529Z,299
2023-12-24T01:49:16.277Z,293
2023-12-24T01:49:45.247Z,290
2023-12-24T01:50:17.855Z,290
2023-12-24T01:51:02.557Z,286
2023-12-24T01:51:15.958Z,283
2023-12-24T01:51:48.170Z,285
2023-12-24T01:52:22.451Z,287
2023-12-24T01:52:51.703Z,286
2023-12-24T01:53:22.579Z,283
2023-12-24T01:53:54.313Z,282
2023-12-24T01:54:23.903Z,279
2023-12-24T01:54:54.969Z,281
2023-12-24T01:55:30.201Z,278
2023-12-24T01:55:57.731Z,279
2023-12-24T01:56:28.062Z,274
2023-12-24T01:56:57.198Z,275
2023-12-24T01:57:29.326Z,277
2023-12-24T01:58:01.430Z,275
2023-12-24T01:58:33.945Z,274
2023-12-24T01:59:02.657Z,274
2023-12-24T01:59:35.442Z,275
2023-12-24T02:00:08.772Z,274
2023-12-24T02:00:38.732Z,272
2023-12-24T02:01:08.282Z,275
2023-12-24T02:01:38.184Z,278
2023-12-24T02:02:08.014Z,273
2023-12-24T02:02:38.832Z,273
2023-12-24T02:03:12.504Z,270
2023-12-24T02:03:45.613Z,273
2023-12-24T02:04:16.279Z,273
2023-12-24T02:04:44.939Z,279
2023-12-24T02:05:16.788Z,282
2023-12-24T02:05:48.846Z,287
2023-12-24T02:06:18.633Z,285
2023-12-24T02:07:08.033Z,288
2023-12-24T02:07:52.838Z,291
2023-12-24T02:08:23.046Z,288
2023-12-24T02:08:55.027Z,291
2023-12-24T02:09:24.126Z,288
2023-12-24T02:09:54.731Z,290
2023-12-24T02:10:27.919Z,292
2023-12-24T02:11:28.654Z,294
2023-12-24T02:11:59.936Z,294
2023-12-24T02:12:31.243Z,297
2023-12-24T02:13:03.249Z,298
2023-12-24T02:13:32.260Z,297
2023-12-24T02:14:06.051Z,297
2023-12-24T02:14:35.957Z,299
2023-12-24T02:15:11.213Z,299
2023-12-24T02:15:40.334Z,300
2023-12-24T02:16:24.642Z,297
2023-12-24T02:16:38.847Z,292
2023-12-24T02:17:12.106Z,288
2023-12-24T02:17:40.080Z,289
2023-12-24T02:18:21.724Z,288
2023-12-24T02:18:43.848Z,285
2023-12-24T02:19:16.179Z,285
2023-12-24T02:19:45.584Z,284
2023-12-24T02:20:19.077Z,283
2023-12-24T02:20:48.260Z,282
2023-12-24T02:21:17.291Z,283
2023-12-24T02:21:48.208Z,284
2023-12-24T02:22:20.789Z,285
2023-12-24T02:22:52.901Z,284
2023-12-24T02:23:38.946Z,284
2023-12-24T02:23:53.815Z,288
2023-12-24T02:24:24.963Z,289
2023-12-24T02:24:54.198Z,289
2023-12-24T02:25:26.011Z,290
2023-12-24T02:25:57.553Z,290
2023-12-24T02:26:27.833Z,291
2023-12-24T02:26:57.537Z,296
2023-12-24T02:27:31.369Z,295
2023-12-24T02:27:59.878Z,296
2023-12-24T02:28:30.519Z,296
2023-12-24T02:29:05.853Z,297
2023-12-24T02:29:35.537Z,299
2023-12-24T02:30:09.025Z,300
2023-12-24T02:30:40.914Z,302
2023-12-24T02:31:09.612Z,305
2023-12-24T02:31:40.562Z,303
2023-12-24T02:32:27.074Z,304
2023-12-24T02:32:41.862Z,305
2023-12-24T02:33:13.048Z,306
2023-12-24T02:33:42.072Z,307
2023-12-24T02:34:17.026Z,307
2023-12-24T02:34:43.484Z,305
2023-12-24T02:35:17.775Z,304
2023-12-24T02:35:47.797Z,306
2023-12-24T02:36:18.080Z,307
2023-12-24T02:36:49.618Z,309
2023-12-24T02:37:18.460Z,306
2023-12-24T02:38:20.603Z,306
2023-12-24T02:38:53.718Z,307
2023-12-24T02:39:20.820Z,305
2023-12-24T02:39:52.548Z,308
2023-12-24T02:40:28.302Z,308
2023-12-24T02:41:15.367Z,304
2023-12-24T02:41:28.054Z,301
2023-12-24T02:41:59.299Z,302
2023-12-24T02:42:33.081Z,306
2023-12-24T02:42:58.867Z,305
2023-12-24T02:43:30.232Z,304
2023-12-24T02:44:03.642Z,300
2023-12-24T02:44:32.694Z,298
2023-12-24T02:45:06.512Z,297
2023-12-24T02:45:38.025Z,298
2023-12-24T02:46:06.192Z,298
2023-12-24T02:46:34.863Z,298
2023-12-24T02:47:09.533Z,296
2023-12-24T02:48:12.254Z,295
2023-12-24T02:48:43.496Z,295
2023-12-24T02:49:13.601Z,296
2023-12-24T02:50:01.847Z,298
2023-12-24T02:50:17.940Z,303
2023-12-24T02:50:46.161Z,302
2023-12-24T02:51:17.801Z,302
2023-12-24T02:51:49.658Z,303
2023-12-24T02:52:19.125Z,305
2023-12-24T02:52:49.038Z,304
2023-12-24T02:53:20.496Z,301
2023-12-24T02:54:08.570Z,300
2023-12-24T02:54:21.393Z,300
2023-12-24T02:54:52.841Z,303
2023-12-24T02:55:28.096Z,304
2023-12-24T02:55:56.494Z,306
2023-12-24T02:56:27.017Z,304
2023-12-24T02:56:57.620Z,305
2023-12-24T02:57:36.198Z,305
2023-12-24T02:57:59.880Z,304
2023-12-24T02:58:30.261Z,306
2023-12-24T02:59:00.901Z,304
2023-12-24T02:59:30.968Z,302
2023-12-24T03:00:05.452Z,297
2023-12-24T03:00:38.132Z,296
2023-12-24T03:01:05.351Z,294
2023-12-24T03:01:35.809Z,289
2023-12-24T03:02:09.234Z,292
2023-12-24T03:02:39.224Z,290
2023-12-24T03:03:08.918Z,291
2023-12-24T03:03:41.054Z,291
2023-12-24T03:04:12.711Z,294
2023-12-24T03:04:41.849Z,296
2023-12-24T03:05:12.941Z,294
2023-12-24T03:05:47.691Z,297
2023-12-24T03:06:14.719Z,297
2023-12-24T03:06:46.356Z,295
2023-12-24T03:07:16.148Z,300
2023-12-24T03:07:48.057Z,294
2023-12-24T03:08:19.072Z,295
2023-12-24T03:08:51.010Z,293
2023-12-24T03:09:19.870Z,298
2023-12-24T03:09:50.873Z,300
2023-12-24T03:10:27.948Z,306
2023-12-24T03:10:59.317Z,306
2023-12-24T03:11:25.659Z,310
2023-12-24T03:11:56.250Z,315
2023-12-24T03:12:30.333Z,314
2023-12-24T03:12:57.841Z,315
2023-12-24T03:13:28.470Z,314
2023-12-24T03:14:02.350Z,314
2023-12-24T03:14:30.965Z,313
2023-12-24T03:15:02.572Z,315
2023-12-24T03:15:51.419Z,312
2023-12-24T03:16:03.864Z,306
2023-12-24T03:16:35.917Z,305
2023-12-24T03:17:09.411Z,309
2023-12-24T03:17:36.589Z,308
2023-12-24T03:18:07.736Z,312
2023-12-24T03:18:40.414Z,312
2023-12-24T03:19:10.648Z,309
2023-12-24T03:19:40.800Z,304
2023-12-24T03:20:16.500Z,307
2023-12-24T03:20:42.593Z,301
2023-12-24T03:21:14.201Z,298
2023-12-24T03:21:48.645Z,295
2023-12-24T03:22:18.182Z,296
2023-12-24T03:22:46.981Z,298
2023-12-24T03:23:18.564Z,300
2023-12-24T03:23:51.078Z,296
2023-12-24T03:24:20.457Z,295
2023-12-24T03:24:50.376Z,296
2023-12-24T03:25:27.011Z,296
2023-12-24T03:25:53.954Z,297
2023-12-24T03:26:23.901Z,300
2023-12-24T03:26:57.776Z,301
2023-12-24T03:27:25.234Z,301
2023-12-24T03:27:56.187Z,300
2023-12-24T03:28:32.216Z,300
2023-12-24T03:28:59.644Z,302
2023-12-24T03:29:29.503Z,304
2023-12-24T03:29:59.557Z,305
2023-12-24T03:30:34.128Z,305
2023-12-24T03:31:01.464Z,307
2023-12-24T03:31:34.172Z,308
2023-12-24T03:32:06.508Z,308
2023-12-24T03:32:37.207Z,308
2023-12-24T03:33:07.844Z,308
2023-12-24T03:33:40.313Z,303
2023-12-24T03:34:13.270Z,307
2023-12-24T03:34:40.546Z,306
2023-12-24T03:35:16.009Z,306
2023-12-24T03:35:46.485Z,301
2023-12-24T03:36:14.194Z,302
2023-12-24T03:36:47.105Z,301
2023-12-24T03:37:16.110Z,300
2023-12-24T03:37:46.490Z,300
2023-12-24T03:38:17.437Z,299
2023-12-24T03:38:49.591Z,298
2023-12-24T03:39:51.413Z,295
2023-12-24T03:40:23.880Z,298
2023-12-24T03:40:53.235Z,297
2023-12-24T03:41:22.757Z,294
2023-12-24T03:41:55.968Z,294
2023-12-24T03:42:24.476Z,295
2023-12-24T03:42:56.360Z,296
2023-12-24T03:43:28.561Z,295
2023-12-24T03:43:58.455Z,294
2023-12-24T03:44:30.140Z,297
2023-12-24T03:44:59.684Z,295
2023-12-24T03:45:37.283Z,296
2023-12-24T03:46:04.237Z,293
2023-12-24T03:46:33.631Z,292
2023-12-24T03:47:06.466Z,293
2023-12-24T03:47:37.386Z,296
2023-12-24T03:48:06.732Z,296
2023-12-24T03:48:39.578Z,293
2023-12-24T03:49:08.497Z,296
2023-12-24T03:49:38.769Z,294
2023-12-24T03:50:14.459Z,295
2023-12-24T03:50:43.085Z,293
2023-12-24T03:51:13.986Z,293
2023-12-24T03:52:03.989Z,292
2023-12-24T03:52:18.313Z,295
2023-12-24T03:52:46.305Z,293
2023-12-24T03:53:17.314Z,295
2023-12-24T03:53:50.892Z,294
2023-12-24T03:54:18.964Z,293
2023-12-24T03:54:52.679Z,292
2023-12-24T03:55:23.426Z,295
2023-12-24T03:55:51.639Z,299
2023-12-24T03:56:54.632Z,301
2023-12-24T03:57:27.413Z,306
2023-12-24T03:57:56.193Z,311
2023-12-24T03:59:03.395Z,311
2023-12-24T03:59:33.743Z,308
2023-12-24T03:59:58.321Z,307
2023-12-24T04:00:35.193Z,312
2023-12-24T04:01:01.179Z,309
2023-12-24T04:01:49.143Z,314
2023-12-24T04:02:03.824Z,314
2023-12-24T04:02:32.457Z,315
2023-12-24T04:03:03.331Z,318
2023-12-24T04:03:33.911Z,319
2023-12-24T04:04:06.099Z,315
2023-12-24T04:04:36.448Z,318
2023-12-24T04:05:09.082Z,316
2023-12-24T04:05:39.151Z,320
2023-12-24T04:06:09.967Z,321
2023-12-24T04:06:40.129Z,320
2023-12-24T04:07:10.753Z,315
2023-12-24T04:07:43.410Z,315
2023-12-24T04:08:44.575Z,316
2023-12-24T04:09:16.346Z,316
2023-12-24T04:09:45.952Z,312
2023-12-24T04:10:22.976Z,313
2023-12-24T04:11:09.572Z,313
2023-12-24T04:11:21.145Z,310
2023-12-24T04:11:51.223Z,312
2023-12-24T04:12:55.308Z,308
2023-12-24T04:13:23.302Z,312
2023-12-24T04:13:56.135Z,314
2023-12-24T04:14:25.206Z,313
2023-12-24T04:14:56.160Z,313
2023-12-24T04:15:29.321Z,312
2023-12-24T04:15:59.670Z,313
2023-12-24T04:16:30.281Z,309
2023-12-24T04:17:01.234Z,306
2023-12-24T04:17:33.352Z,308
2023-12-24T04:18:04.004Z,312
2023-12-24T04:18:33.995Z,312
2023-12-24T04:19:05.693Z,311
2023-12-24T04:19:53.232Z,308
2023-12-24T04:20:09.268Z,303
2023-12-24T04:20:40.718Z,303
2023-12-24T04:21:08.584Z,304
2023-12-24T04:22:11.026Z,303
2023-12-24T04:22:41.971Z,307
2023-12-24T04:23:13.225Z,302
2023-12-24T04:23:46.379Z,305
2023-12-24T04:24:16.037Z,306
2023-12-24T04:24:46.264Z,301
2023-12-24T04:25:20.162Z,305
2023-12-24T04:25:48.733Z,302
2023-12-24T04:26:19.206Z,303
2023-12-24T04:26:50.873Z,299
2023-12-24T04:27:20.605Z,302
2023-12-24T04:27:53.465Z,301
2023-12-24T04:28:23.775Z,298
2023-12-24T04:28:55.693Z,299
2023-12-24T04:29:25.717Z,301
2023-12-24T04:29:55.680Z,302
2023-12-24T04:30:31.878Z,302
2023-12-24T04:31:29.591Z,303
2023-12-24T04:31:59.721Z,302
2023-12-24T04:32:33.926Z,301
2023-12-24T04:33:04.130Z,301
2023-12-24T04:33:32.224Z,299
2023-12-24T04:34:04.190Z,301
2023-12-24T04:34:36.129Z,300
2023-12-24T04:35:08.137Z,297
2023-12-24T04:35:37.288Z,298
2023-12-24T04:36:10.980Z,294
2023-12-24T04:36:38.990Z,298
2023-12-24T04:37:09.495Z,301
2023-12-24T04:37:41.614Z,302
2023-12-24T04:38:11.854Z,304
2023-12-24T04:38:43.473Z,306
2023-12-24T04:39:14.477Z,308
2023-12-24T04:39:47.069Z,306
2023-12-24T04:40:20.239Z,304
2023-12-24T04:40:47.703Z,305
2023-12-24T04:41:38.054Z,305
2023-12-24T04:41:50.237Z,306
2023-12-24T04:42:20.043Z,303
2023-12-24T04:42:51.926Z,302
2023-12-24T04:43:24.155Z,300
2023-12-24T04:43:52.500Z,298
2023-12-24T04:44:23.935Z,299
2023-12-24T04:44:55.374Z,300
2023-12-24T04:45:26.115Z,300
2023-12-24T04:45:57.463Z,300
2023-12-24T04:46:29.869Z,301
2023-12-24T04:46:58.242Z,299
2023-12-24T04:47:31.191Z,296
2023-12-24T04:48:01.231Z,298
2023-12-24T04:48:36.216Z,296
2023-12-24T04:49:03.279Z,293
2023-12-24T04:49:34.767Z,294
2023-12-24T04:50:07.530Z,291
2023-12-24T04:50:38.388Z,293
2023-12-24T04:51:08.254Z,293
2023-12-24T04:51:40.467Z,294
2023-12-24T04:52:08.702Z,294
2023-12-24T04:52:40.335Z,295
2023-12-24T04:53:12.677Z,297
2023-12-24T04:53:41.246Z,299
2023-12-24T04:54:15.043Z,300
2023-12-24T04:54:44.957Z,299
2023-12-24T04:55:15.912Z,296
2023-12-24T04:55:46.518Z,297
2023-12-24T04:56:16.973Z,297
2023-12-24T04:56:47.616Z,296
2023-12-24T04:57:20.921Z,300
2023-12-24T04:57:51.514Z,304
2023-12-24T04:58:20.792Z,301
2023-12-24T04:58:53.464Z,302
2023-12-24T04:59:24.114Z,305
2023-12-24T04:59:53.495Z,304
2023-12-24T05:00:29.043Z,305
2023-12-24T05:00:57.282Z,305
2023-12-24T05:01:27.296Z,307
2023-12-24T05:02:07.025Z,306
2023-12-24T05:02:28.642Z,306
2023-12-24T05:03:02.281Z,308
2023-12-24T05:03:32.909Z,307
2023-12-24T05:04:03.121Z,309
2023-12-24T05:04:36.117Z,312
2023-12-24T05:05:05.582Z,311
2023-12-24T05:05:36.243Z,315
2023-12-24T05:06:07.571Z,315
2023-12-24T05:06:36.648Z,314
2023-12-24T05:07:07.828Z,317
2023-12-24T05:07:41.015Z,312
2023-12-24T05:08:10.163Z,311
2023-12-24T05:08:40.805Z,313
2023-12-24T05:09:12.827Z,311
2023-12-24T05:09:46.335Z,311
2023-12-24T05:10:17.692Z,310
2023-12-24T05:10:47.140Z,307
2023-12-24T05:11:19.289Z,307
2023-12-24T05:11:48.064Z,308
2023-12-24T05:12:21.571Z,309
2023-12-24T05:12:51.463Z,312
2023-12-24T05:13:20.672Z,313
2023-12-24T05:13:51.220Z,313
2023-12-24T05:14:22.362Z,314
2023-12-24T05:14:52.440Z,311
2023-12-24T05:15:29.530Z,311
2023-12-24T05:15:56.283Z,309
2023-12-24T05:16:26.785Z,308
2023-12-24T05:16:56.686Z,310
2023-12-24T05:17:30.053Z,308
2023-12-24T05:18:00.748Z,309
2023-12-24T05:18:30.153Z,306
2023-12-24T05:19:02.077Z,302
2023-12-24T05:19:35.103Z,301
2023-12-24T05:20:04.779Z,299
2023-12-24T05:20:34.075Z,294
2023-12-24T05:21:08.664Z,296
2023-12-24T05:21:38.614Z,296
2023-12-24T05:22:21.580Z,294
2023-12-24T05:23:04.901Z,295
2023-12-24T05:23:41.558Z,293
2023-12-24T05:24:14.436Z,292
2023-12-24T05:24:45.263Z,293
2023-12-24T05:25:16.201Z,294
2023-12-24T05:25:48.121Z,294
2023-12-24T05:26:50.773Z,296
2023-12-24T05:27:20.053Z,296
2023-12-24T05:27:51.637Z,297
2023-12-24T05:28:21.442Z,298
2023-12-24T05:28:54.861Z,299
2023-12-24T05:29:23.007Z,303
2023-12-24T05:29:53.685Z,301
2023-12-24T05:30:31.297Z,306
2023-12-24T05:30:57.436Z,312
2023-12-24T05:31:50.448Z,313
2023-12-24T05:32:48.188Z,314
2023-12-24T05:32:59.699Z,315
2023-12-24T05:33:31.941Z,317
2023-12-24T05:34:00.817Z,317
2023-12-24T05:34:31.202Z,316
2023-12-24T05:35:56.785Z,318
2023-12-24T05:36:08.526Z,318
2023-12-24T05:36:40.169Z,315
2023-12-24T05:37:40.104Z,316
2023-12-24T05:38:41.619Z,312
2023-12-24T05:39:15.368Z,312
2023-12-24T05:39:44.322Z,313
2023-12-24T05:40:15.782Z,312
2023-12-24T05:40:46.101Z,310
2023-12-24T05:41:18.765Z,311
2023-12-24T05:41:48.140Z,311
2023-12-24T05:42:19.372Z,308
2023-12-24T05:42:50.814Z,306
2023-12-24T05:43:20.616Z,307
2023-12-24T05:43:50.719Z,306
2023-12-24T05:44:21.241Z,306
2023-12-24T05:44:53.308Z,306
2023-12-24T05:45:28.694Z,302
2023-12-24T05:45:55.806Z,301
2023-12-24T05:46:25.772Z,300
2023-12-24T05:47:28.217Z,301
2023-12-24T05:48:00.840Z,304
2023-12-24T05:48:31.861Z,301
2023-12-24T05:49:00.547Z,297
2023-12-24T05:49:30.929Z,300
2023-12-24T05:50:05.322Z,296
2023-12-24T05:50:37.400Z,296
2023-12-24T05:51:07.352Z,292
2023-12-24T05:51:34.228Z,295
2023-12-24T05:52:08.448Z,295
2023-12-24T05:52:37.459Z,301
2023-12-24T05:53:09.260Z,307
2023-12-24T05:53:47.860Z,306
2023-12-24T05:54:11.008Z,306
2023-12-24T05:54:40.532Z,307
2023-12-24T05:55:12.534Z,309
2023-12-24T05:55:44.516Z,304
2023-12-24T05:56:14.261Z,307
2023-12-24T05:56:42.814Z,311
2023-12-24T05:57:16.065Z,312
2023-12-24T05:58:04.978Z,313
2023-12-24T05:58:16.988Z,313
2023-12-24T05:58:49.298Z,317
2023-12-24T05:59:20.355Z,317
2023-12-24T05:59:52.738Z,317
2023-12-24T06:00:27.194Z,318
2023-12-24T06:00:54.284Z,315
2023-12-24T06:01:24.300Z,320
2023-12-24T06:01:54.952Z,316
2023-12-24T06:02:26.227Z,317
2023-12-24T06:02:56.424Z,315
2023-12-24T06:03:29.344Z,309
2023-12-24T06:04:02.009Z,309
2023-12-24T06:04:29.106Z,311
2023-12-24T06:04:59.440Z,315
2023-12-24T06:05:37.679Z,311
2023-12-24T06:06:13.578Z,314
2023-12-24T06:06:35.811Z,312
2023-12-24T06:07:03.115Z,313
2023-12-24T06:07:34.887Z,312
2023-12-24T06:08:12.777Z,311
2023-12-24T06:08:40.153Z,307
2023-12-24T06:09:07.918Z,303
2023-12-24T06:09:40.903Z,302
2023-12-24T06:10:12.320Z,303
2023-12-24T06:10:43.898Z,306
2023-12-24T06:11:13.103Z,309
2023-12-24T06:11:44.805Z,304
2023-12-24T06:12:16.630Z,305
2023-12-24T06:12:48.494Z,299
2023-12-24T06:13:21.091Z,300
2023-12-24T06:14:21.945Z,303
2023-12-24T06:14:55.188Z,305
2023-12-24T06:15:32.478Z,302
2023-12-24T06:15:53.839Z,301
2023-12-24T06:16:42.667Z,307
2023-12-24T06:16:57.770Z,305
2023-12-24T06:17:26.821Z,309
2023-12-24T06:17:57.492Z,310
2023-12-24T06:18:29.522Z,307
2023-12-24T06:19:00.143Z,305
2023-12-24T06:19:29.931Z,307
2023-12-24T06:20:39.549Z,311
2023-12-24T06:21:05.339Z,313
2023-12-24T06:21:32.499Z,311
2023-12-24T06:22:02.248Z,313
2023-12-24T06:22:35.721Z,310
2023-12-24T06:23:48.509Z,314
2023-12-24T06:24:13.778Z,316
2023-12-24T06:24:40.651Z,320
2023-12-24T06:25:15.234Z,318
2023-12-24T06:25:41.892Z,320
2023-12-24T06:26:13.416Z,321
2023-12-24T06:26:44.995Z,320
2023-12-24T06:27:14.103Z,319
2023-12-24T06:27:45.438Z,316
2023-12-24T06:28:15.235Z,314
2023-12-24T06:28:46.864Z,316
2023-12-24T06:29:17.702Z,312
2023-12-24T06:29:51.781Z,315
2023-12-24T06:30:50.057Z,317
2023-12-24T06:31:24.447Z,318
2023-12-24T06:31:53.690Z,316
2023-12-24T06:32:58.757Z,318
2023-12-24T06:33:38.252Z,317
2023-12-24T06:33:59.808Z,317
2023-12-24T06:34:45.150Z,317
2023-12-24T06:34:58.071Z,318
2023-12-24T06:35:30.749Z,318
2023-12-24T06:36:00.317Z,315
2023-12-24T06:36:31.724Z,316
2023-12-24T06:37:02.792Z,314
2023-12-24T06:37:33.304Z,309
2023-12-24T06:38:04.453Z,309
2023-12-24T06:38:35.016Z,309
2023-12-24T06:39:10.524Z,305
2023-12-24T06:39:36.872Z,304
2023-12-24T06:40:09.354Z,301
2023-12-24T06:40:38.798Z,304
2023-12-24T06:41:09.513Z,302
2023-12-24T06:41:41.635Z,304
2023-12-24T06:42:11.820Z,303
2023-12-24T06:42:40.756Z,304
2023-12-24T06:43:13.024Z,303
2023-12-24T06:43:44.069Z,308
2023-12-24T06:44:28.215Z,311
2023-12-24T06:44:46.726Z,306
2023-12-24T06:45:18.041Z,305
2023-12-24T06:45:49.204Z,304
2023-12-24T06:46:20.027Z,307
2023-12-24T06:46:53.940Z,305
2023-12-24T06:47:21.027Z,308
2023-12-24T06:47:53.799Z,312
2023-12-24T06:48:23.313Z,316
2023-12-24T06:48:54.454Z,313
2023-12-24T06:49:31.074Z,317
2023-12-24T06:49:55.550Z,317
2023-12-24T06:50:29.179Z,320
2023-12-24T06:50:59.271Z,320
2023-12-24T06:51:33.545Z,322
2023-12-24T06:51:59.864Z,318
2023-12-24T06:52:54.228Z,320
2023-12-24T06:53:02.253Z,319
2023-12-24T06:53:39.848Z,317
2023-12-24T06:54:04.386Z,313
2023-12-24T06:54:35.109Z,309
2023-12-24T06:55:07.417Z,313
2023-12-24T06:55:34.969Z,311
2023-12-24T06:56:09.926Z,313
2023-12-24T06:56:37.468Z,310
2023-12-24T06:57:08.565Z,311
2023-12-24T06:57:38.470Z,310
2023-12-24T06:58:11.549Z,310
2023-12-24T06:58:41.387Z,310
2023-12-24T06:59:12.090Z,309
2023-12-24T06:59:43.057Z,310
2023-12-24T07:00:16.796Z,312
2023-12-24T07:00:47.266Z,311
2023-12-24T07:01:16.823Z,312
2023-12-24T07:01:47.936Z,312
2023-12-24T07:02:19.644Z,313
2023-12-24T07:02:50.762Z,314
2023-12-24T07:03:20.997Z,314
2023-12-24T07:03:51.747Z,314
2023-12-24T07:04:26.696Z,316
2023-12-24T07:05:26.469Z,315
2023-12-24T07:05:56.482Z,319
2023-12-24T07:08:56.389Z,316
2023-12-24T07:09:07.181Z,318
2023-12-24T07:10:18.132Z,315
2023-12-24T07:10:34.736Z,314
2023-12-24T07:11:06.080Z,311
2023-12-24T07:11:36.946Z,314
2023-12-24T07:12:07.696Z,319
2023-12-24T07:12:38.614Z,317
2023-12-24T07:13:13.733Z,315
2023-12-24T07:13:40.774Z,316
2023-12-24T07:24:57.682Z,315
2023-12-24T07:25:09.409Z,315
2023-12-24T07:25:42.168Z,317
2023-12-24T07:27:14.165Z,312
2023-12-24T07:27:40.412Z,314
2023-12-24T07:28:09.260Z,314
2023-12-24T07:28:41.941Z,313
2023-12-24T07:29:24.313Z,314
2023-12-24T07:29:43.389Z,314
2023-12-24T07:30:13.382Z,311
2023-12-24T07:31:02.828Z,313
2023-12-24T07:31:15.233Z,313
2023-12-24T07:31:52.261Z,315
2023-12-24T07:32:24.192Z,316
2023-12-24T07:32:47.847Z,316
2023-12-24T07:33:21.148Z,315
2023-12-24T07:34:08.555Z,310
2023-12-24T07:34:22.908Z,308
2023-12-24T07:34:54.006Z,307
2023-12-24T07:36:06.392Z,307
2023-12-24T07:36:24.819Z,306